createdAt,value
2022-11-18T00:00:24.571Z,997.64
2022-11-18T00:01:24.545Z,997.66
2022-11-18T00:02:24.588Z,997.63
2022-11-18T00:03:24.503Z,997.63
2022-11-18T00:04:24.488Z,997.66
2022-11-18T00:05:24.488Z,997.63
2022-11-18T00:06:24.492Z,997.63
2022-11-18T00:07:24.569Z,997.65
2022-11-18T00:08:24.439Z,997.65
2022-11-18T00:09:24.431Z,997.58
2022-11-18T00:10:24.421Z,997.64
2022-11-18T00:11:24.428Z,997.56
2022-11-18T00:12:24.412Z,997.56
2022-11-18T00:13:24.392Z,997.58
2022-11-18T00:14:24.374Z,997.51
2022-11-18T00:15:29.059Z,997.62
2022-11-18T00:16:25.358Z,997.57
2022-11-18T00:17:24.359Z,997.50
2022-11-18T00:18:24.333Z,997.54
2022-11-18T00:19:24.334Z,997.50
2022-11-18T00:20:24.314Z,997.55
2022-11-18T00:21:24.305Z,997.57
2022-11-18T00:22:29.534Z,997.54
2022-11-18T00:23:25.290Z,997.57
2022-11-18T00:24:24.281Z,997.62
2022-11-18T00:25:24.260Z,997.56
2022-11-18T00:26:24.259Z,997.63
2022-11-18T00:27:24.255Z,997.59
2022-11-18T00:28:24.226Z,997.62
2022-11-18T00:29:24.221Z,997.62
2022-11-18T00:30:24.221Z,997.61
2022-11-18T00:31:24.188Z,997.56
2022-11-18T00:32:24.184Z,997.60
2022-11-18T00:33:24.174Z,997.61
2022-11-18T00:34:24.162Z,997.59
2022-11-18T00:35:24.145Z,997.63
2022-11-18T00:36:24.161Z,997.62
2022-11-18T00:37:24.120Z,997.68
2022-11-18T00:38:24.115Z,997.66
2022-11-18T00:39:24.188Z,997.65
2022-11-18T00:40:24.092Z,997.65
2022-11-18T00:41:24.081Z,997.74
2022-11-18T00:42:24.085Z,997.70
2022-11-18T00:43:24.056Z,997.73
2022-11-18T00:44:24.047Z,997.76
2022-11-18T00:45:24.036Z,997.69
2022-11-18T00:46:24.035Z,997.73
2022-11-18T00:47:24.044Z,997.77
2022-11-18T00:48:24.012Z,997.70
2022-11-18T00:49:23.999Z,997.75
2022-11-18T00:50:23.975Z,997.73
2022-11-18T00:51:23.979Z,997.69
2022-11-18T00:52:23.960Z,997.72
2022-11-18T00:53:23.965Z,997.70
2022-11-18T00:54:23.944Z,997.85
2022-11-18T00:55:23.951Z,997.70
2022-11-18T00:56:23.925Z,997.73
2022-11-18T00:57:23.915Z,997.72
2022-11-18T00:58:23.909Z,997.72
2022-11-18T00:59:23.882Z,997.66
2022-11-18T01:00:23.874Z,997.73
2022-11-18T01:01:23.961Z,997.72
2022-11-18T01:02:23.860Z,997.66
2022-11-18T01:03:23.863Z,997.77
2022-11-18T01:04:23.835Z,997.73
2022-11-18T01:05:23.845Z,997.71
2022-11-18T01:06:23.812Z,997.63
2022-11-18T01:07:23.890Z,997.64
2022-11-18T01:08:23.833Z,997.61
2022-11-18T01:09:23.776Z,997.67
2022-11-18T01:10:23.772Z,997.67
2022-11-18T01:11:23.769Z,997.62
2022-11-18T01:12:23.745Z,997.68
2022-11-18T01:13:23.736Z,997.66
2022-11-18T01:14:23.751Z,997.72
2022-11-18T01:15:23.732Z,997.65
2022-11-18T01:16:23.713Z,997.71
2022-11-18T01:17:23.698Z,997.66
2022-11-18T01:18:23.677Z,997.71
2022-11-18T01:19:23.677Z,997.70
2022-11-18T01:20:23.670Z,997.75
2022-11-18T01:21:23.680Z,997.69
2022-11-18T01:22:23.648Z,997.64
2022-11-18T01:23:23.649Z,997.69
2022-11-18T01:24:23.626Z,997.71
2022-11-18T01:25:23.627Z,997.73
2022-11-18T01:26:23.599Z,997.75
2022-11-18T01:27:23.598Z,997.75
2022-11-18T01:28:24.337Z,997.73
2022-11-18T01:29:23.561Z,997.74
2022-11-18T01:30:23.550Z,997.73
2022-11-18T01:31:23.555Z,997.82
2022-11-18T01:32:25.393Z,997.79
2022-11-18T01:33:23.532Z,997.76
2022-11-18T01:34:23.502Z,997.78
2022-11-18T01:35:23.489Z,997.84
2022-11-18T01:36:23.511Z,997.84
2022-11-18T01:37:23.473Z,997.83
2022-11-18T01:38:23.468Z,997.87
2022-11-18T01:39:23.470Z,997.82
2022-11-18T01:40:23.449Z,997.85
2022-11-18T01:41:32.294Z,997.87
2022-11-18T01:42:23.416Z,997.83
2022-11-18T01:43:23.434Z,997.88
2022-11-18T01:44:23.389Z,997.85
2022-11-18T01:45:23.389Z,997.82
2022-11-18T01:46:23.371Z,997.79
2022-11-18T01:47:23.370Z,997.83
2022-11-18T01:48:23.357Z,997.81
2022-11-18T01:49:23.332Z,997.74
2022-11-18T01:50:23.328Z,997.81
2022-11-18T01:51:23.310Z,997.77
2022-11-18T01:52:23.315Z,997.74
2022-11-18T01:53:23.313Z,997.77
2022-11-18T01:54:23.279Z,997.78
2022-11-18T01:55:23.269Z,997.77
2022-11-18T01:56:23.265Z,997.81
2022-11-18T01:57:23.244Z,997.73
2022-11-18T01:58:23.235Z,997.74
2022-11-18T01:59:23.257Z,997.73
2022-11-18T02:00:23.220Z,997.75
2022-11-18T02:01:23.275Z,997.74
2022-11-18T02:02:23.195Z,997.81
2022-11-18T02:03:23.183Z,997.70
2022-11-18T02:04:23.179Z,997.78
2022-11-18T02:05:23.173Z,997.78
2022-11-18T02:06:23.149Z,997.81
2022-11-18T02:07:23.208Z,997.83
2022-11-18T02:08:23.129Z,997.83
2022-11-18T02:09:23.136Z,997.82
2022-11-18T02:10:23.114Z,997.78
2022-11-18T02:11:23.100Z,997.81
2022-11-18T02:12:23.154Z,997.83
2022-11-18T02:13:23.076Z,997.82
2022-11-18T02:14:23.066Z,997.84
2022-11-18T02:15:23.084Z,997.85
2022-11-18T02:16:23.044Z,997.87
2022-11-18T02:17:23.037Z,997.79
2022-11-18T02:18:23.016Z,997.85
2022-11-18T02:19:23.007Z,997.77
2022-11-18T02:20:23.019Z,997.83
2022-11-18T02:21:22.983Z,997.79
2022-11-18T02:22:22.994Z,997.86
2022-11-18T02:23:22.980Z,997.83
2022-11-18T02:24:22.990Z,997.83
2022-11-18T02:25:22.952Z,997.82
2022-11-18T02:26:22.936Z,997.88
2022-11-18T02:27:22.927Z,997.88
2022-11-18T02:28:22.916Z,997.84
2022-11-18T02:29:22.907Z,997.91
2022-11-18T02:30:22.884Z,997.90
2022-11-18T02:31:22.900Z,997.88
2022-11-18T02:32:22.863Z,997.83
2022-11-18T02:33:22.860Z,997.85
2022-11-18T02:34:22.843Z,997.88
2022-11-18T02:35:22.849Z,997.86
2022-11-18T02:36:22.826Z,997.82
2022-11-18T02:37:22.829Z,997.84
2022-11-18T02:38:22.800Z,997.83
2022-11-18T02:39:22.798Z,997.90
2022-11-18T02:40:22.787Z,997.94
2022-11-18T02:41:22.775Z,997.89
2022-11-18T02:42:22.763Z,997.89
2022-11-18T02:43:22.745Z,997.87
2022-11-18T02:44:22.731Z,997.93
2022-11-18T02:45:22.741Z,997.92
2022-11-18T02:46:22.717Z,997.92
2022-11-18T02:47:22.724Z,997.88
2022-11-18T02:48:22.693Z,998.00
2022-11-18T02:49:22.688Z,997.86
2022-11-18T02:50:22.668Z,997.91
2022-11-18T02:51:22.694Z,997.94
2022-11-18T02:52:22.644Z,997.94
2022-11-18T02:53:22.645Z,997.90
2022-11-18T02:54:22.625Z,997.89
2022-11-18T02:55:22.614Z,997.99
2022-11-18T02:56:22.603Z,997.87
2022-11-18T02:57:22.618Z,997.88
2022-11-18T02:58:22.580Z,997.88
2022-11-18T02:59:22.574Z,997.87
2022-11-18T03:00:22.570Z,997.92
2022-11-18T03:01:22.647Z,997.89
2022-11-18T03:02:22.551Z,997.87
2022-11-18T03:03:22.554Z,997.89
2022-11-18T03:04:22.526Z,997.88
2022-11-18T03:05:22.506Z,997.92
2022-11-18T03:06:22.507Z,997.97
2022-11-18T03:07:22.533Z,997.91
2022-11-18T03:08:22.476Z,997.91
2022-11-18T03:09:22.466Z,997.83
2022-11-18T03:10:22.448Z,997.82
2022-11-18T03:11:22.467Z,997.79
2022-11-18T03:12:22.428Z,997.80
2022-11-18T03:13:22.436Z,997.78
2022-11-18T03:14:22.408Z,997.73
2022-11-18T03:15:22.406Z,997.75
2022-11-18T03:16:22.395Z,997.81
2022-11-18T03:17:22.383Z,997.76
2022-11-18T03:18:22.382Z,997.75
2022-11-18T03:19:22.374Z,997.81
2022-11-18T03:20:22.345Z,997.81
2022-11-18T03:21:22.334Z,997.82
2022-11-18T03:22:22.325Z,997.80
2022-11-18T03:23:22.353Z,997.83
2022-11-18T03:24:22.307Z,997.90
2022-11-18T03:25:22.283Z,997.88
2022-11-18T03:26:22.276Z,997.85
2022-11-18T03:27:22.268Z,997.87
2022-11-18T03:28:22.264Z,997.92
2022-11-18T03:29:22.259Z,997.99
2022-11-18T03:30:22.236Z,997.99
2022-11-18T03:31:22.224Z,998.01
2022-11-18T03:32:22.210Z,997.96
2022-11-18T03:33:22.196Z,998.02
2022-11-18T03:34:22.206Z,998.01
2022-11-18T03:35:22.200Z,998.02
2022-11-18T03:36:22.175Z,998.07
2022-11-18T03:37:22.161Z,998.08
2022-11-18T03:38:22.154Z,998.12
2022-11-18T03:39:22.156Z,998.12
2022-11-18T03:40:22.131Z,998.09
2022-11-18T03:41:22.123Z,998.04
2022-11-18T03:42:22.139Z,998.09
2022-11-18T03:43:22.097Z,998.08
2022-11-18T03:44:22.082Z,998.11
2022-11-18T03:45:22.071Z,998.11
2022-11-18T03:46:22.061Z,998.04
2022-11-18T03:47:22.053Z,998.09
2022-11-18T03:48:22.053Z,998.07
2022-11-18T03:49:22.030Z,998.06
2022-11-18T03:50:22.030Z,998.13
2022-11-18T03:51:22.033Z,998.04
2022-11-18T03:52:21.997Z,998.11
2022-11-18T03:53:22.015Z,998.11
2022-11-18T03:54:21.994Z,998.12
2022-11-18T03:55:21.974Z,998.19
2022-11-18T03:56:21.951Z,998.18
2022-11-18T03:57:21.951Z,998.19
2022-11-18T03:58:21.932Z,998.22
2022-11-18T03:59:21.946Z,998.27
2022-11-18T04:00:21.909Z,998.28
2022-11-18T04:01:22.004Z,998.29
2022-11-18T04:02:21.905Z,998.24
2022-11-18T04:03:21.897Z,998.26
2022-11-18T04:04:21.873Z,998.31
2022-11-18T04:05:21.867Z,998.24
2022-11-18T04:06:21.844Z,998.29
2022-11-18T04:07:22.012Z,998.27
2022-11-18T04:08:21.839Z,998.29
2022-11-18T04:09:21.830Z,998.29
2022-11-18T04:10:21.832Z,998.25
2022-11-18T04:11:21.790Z,998.27
2022-11-18T04:12:21.783Z,998.33
2022-11-18T04:13:21.904Z,998.30
2022-11-18T04:14:21.756Z,998.30
2022-11-18T04:15:21.883Z,998.34
2022-11-18T04:16:21.745Z,998.33
2022-11-18T04:17:21.738Z,998.30
2022-11-18T04:18:21.717Z,998.28
2022-11-18T04:19:22.170Z,998.32
2022-11-18T04:20:21.703Z,998.33
2022-11-18T04:21:21.678Z,998.26
2022-11-18T04:22:21.669Z,998.37
2022-11-18T04:23:21.822Z,998.28
2022-11-18T04:24:21.656Z,998.30
2022-11-18T04:25:21.683Z,998.34
2022-11-18T04:26:21.628Z,998.35
2022-11-18T04:27:21.624Z,998.34
2022-11-18T04:28:21.610Z,998.38
2022-11-18T04:29:21.603Z,998.37
2022-11-18T04:30:21.583Z,998.41
2022-11-18T04:31:21.618Z,998.43
2022-11-18T04:32:21.620Z,998.44
2022-11-18T04:33:21.556Z,998.45
2022-11-18T04:34:21.547Z,998.45
2022-11-18T04:35:21.540Z,998.43
2022-11-18T04:36:21.536Z,998.49
2022-11-18T04:37:21.574Z,998.47
2022-11-18T04:38:22.229Z,998.54
2022-11-18T04:39:21.515Z,998.50
2022-11-18T04:40:21.483Z,998.51
2022-11-18T04:41:21.475Z,998.54
2022-11-18T04:42:21.478Z,998.59
2022-11-18T04:43:21.456Z,998.57
2022-11-18T04:44:21.429Z,998.61
2022-11-18T04:45:21.423Z,998.62
2022-11-18T04:46:21.411Z,998.61
2022-11-18T04:47:21.435Z,998.65
2022-11-18T04:48:21.407Z,998.58
2022-11-18T04:49:21.377Z,998.71
2022-11-18T04:50:21.363Z,998.80
2022-11-18T04:51:21.354Z,998.74
2022-11-18T04:52:21.364Z,998.72
2022-11-18T04:53:21.339Z,998.75
2022-11-18T04:54:21.325Z,998.73
2022-11-18T04:55:21.388Z,998.78
2022-11-18T04:56:21.308Z,998.74
2022-11-18T04:57:21.307Z,998.72
2022-11-18T04:58:21.277Z,998.83
2022-11-18T04:59:21.603Z,998.88
2022-11-18T05:00:21.263Z,998.79
2022-11-18T05:01:21.354Z,998.80
2022-11-18T05:02:21.247Z,998.81
2022-11-18T05:03:21.222Z,998.83
2022-11-18T05:04:21.244Z,998.79
2022-11-18T05:05:21.216Z,998.80
2022-11-18T05:06:21.191Z,998.81
2022-11-18T05:07:21.282Z,998.83
2022-11-18T05:08:21.171Z,998.78
2022-11-18T05:09:21.598Z,998.81
2022-11-18T05:10:21.183Z,998.79
2022-11-18T05:11:21.150Z,998.79
2022-11-18T05:12:21.128Z,998.82
2022-11-18T05:13:21.119Z,998.77
2022-11-18T05:14:21.101Z,998.81
2022-11-18T05:15:21.124Z,998.82
2022-11-18T05:16:21.089Z,998.80
2022-11-18T05:17:21.077Z,998.84
2022-11-18T05:18:21.079Z,998.81
2022-11-18T05:19:21.160Z,998.82
2022-11-18T05:20:21.059Z,998.81
2022-11-18T05:21:21.047Z,998.82
2022-11-18T05:22:21.023Z,998.80
2022-11-18T05:23:21.011Z,998.80
2022-11-18T05:24:20.989Z,998.82
2022-11-18T05:25:20.979Z,998.85
2022-11-18T05:26:20.988Z,998.84
2022-11-18T05:27:21.010Z,998.79
2022-11-18T05:28:20.956Z,998.86
2022-11-18T05:29:20.943Z,998.86
2022-11-18T05:30:20.941Z,998.87
2022-11-18T05:31:20.914Z,998.89
2022-11-18T05:32:20.903Z,998.96
2022-11-18T05:33:20.904Z,998.94
2022-11-18T05:34:20.890Z,998.89
2022-11-18T05:35:20.875Z,998.93
2022-11-18T05:36:20.863Z,998.93
2022-11-18T05:37:20.852Z,998.91
2022-11-18T05:38:20.869Z,998.90
2022-11-18T05:39:21.174Z,998.92
2022-11-18T05:40:20.820Z,998.93
2022-11-18T05:41:20.811Z,998.93
2022-11-18T05:42:20.796Z,998.99
2022-11-18T05:43:20.823Z,999.01
2022-11-18T05:44:20.801Z,999.04
2022-11-18T05:45:20.769Z,999.09
2022-11-18T05:46:20.758Z,999.08
2022-11-18T05:47:20.743Z,999.09
2022-11-18T05:48:20.742Z,999.12
2022-11-18T05:49:20.893Z,999.14
2022-11-18T05:50:21.557Z,999.17
2022-11-18T05:51:20.707Z,999.17
2022-11-18T05:52:20.800Z,999.18
2022-11-18T05:53:20.680Z,999.18
2022-11-18T05:54:20.714Z,999.20
2022-11-18T05:55:20.694Z,999.26
2022-11-18T05:56:20.683Z,999.26
2022-11-18T05:57:20.633Z,999.27
2022-11-18T05:58:20.673Z,999.25
2022-11-18T05:59:20.973Z,999.27
2022-11-18T06:00:20.636Z,999.32
2022-11-18T06:01:20.592Z,999.35
2022-11-18T06:02:20.674Z,999.29
2022-11-18T06:03:20.655Z,999.34
2022-11-18T06:04:20.574Z,999.32
2022-11-18T06:05:20.557Z,999.33
2022-11-18T06:06:20.549Z,999.29
2022-11-18T06:07:20.585Z,999.38
2022-11-18T06:08:20.659Z,999.35
2022-11-18T06:09:22.006Z,999.35
2022-11-18T06:10:22.067Z,999.41
2022-11-18T06:11:21.247Z,999.36
2022-11-18T06:12:20.757Z,999.51
2022-11-18T06:13:20.456Z,999.44
2022-11-18T06:14:20.460Z,999.40
2022-11-18T06:15:20.474Z,999.44
2022-11-18T06:16:20.437Z,999.40
2022-11-18T06:17:20.422Z,999.41
2022-11-18T06:18:20.413Z,999.43
2022-11-18T06:19:20.625Z,999.51
2022-11-18T06:20:20.397Z,999.52
2022-11-18T06:21:20.370Z,999.52
2022-11-18T06:22:20.364Z,999.51
2022-11-18T06:23:20.350Z,999.56
2022-11-18T06:24:20.349Z,999.56
2022-11-18T06:25:20.353Z,999.53
2022-11-18T06:26:20.331Z,999.61
2022-11-18T06:27:20.307Z,999.60
2022-11-18T06:28:20.294Z,999.55
2022-11-18T06:29:24.560Z,999.61
2022-11-18T06:30:21.297Z,999.66
2022-11-18T06:31:20.302Z,999.64
2022-11-18T06:32:20.259Z,999.64
2022-11-18T06:33:20.251Z,999.62
2022-11-18T06:34:20.239Z,999.65
2022-11-18T06:35:20.242Z,999.74
2022-11-18T06:36:20.241Z,999.71
2022-11-18T06:37:20.194Z,999.61
2022-11-18T06:38:20.190Z,999.73
2022-11-18T06:39:20.719Z,999.71
2022-11-18T06:40:20.164Z,999.68
2022-11-18T06:41:20.177Z,999.72
2022-11-18T06:42:20.140Z,999.74
2022-11-18T06:43:20.138Z,999.75
2022-11-18T06:44:20.117Z,999.74
2022-11-18T06:45:20.304Z,999.73
2022-11-18T06:46:20.117Z,999.75
2022-11-18T06:47:20.109Z,999.80
2022-11-18T06:48:20.088Z,999.79
2022-11-18T06:49:20.374Z,999.81
2022-11-18T06:50:20.063Z,999.84
2022-11-18T06:51:20.052Z,999.83
2022-11-18T06:52:20.069Z,999.84
2022-11-18T06:53:20.028Z,999.88
2022-11-18T06:54:20.012Z,999.90
2022-11-18T06:55:20.007Z,999.88
2022-11-18T06:56:20.000Z,1000.00
2022-11-18T06:57:19.988Z,999.95
2022-11-18T06:58:19.984Z,999.93
2022-11-18T06:59:20.157Z,999.93
2022-11-18T07:00:19.947Z,999.97
2022-11-18T07:01:20.881Z,999.97
2022-11-18T07:02:19.930Z,999.96
2022-11-18T07:03:19.959Z,1000.03
2022-11-18T07:04:19.942Z,1000.02
2022-11-18T07:05:20.654Z,1000.05
2022-11-18T07:06:19.923Z,1000.04
2022-11-18T07:07:19.917Z,1000.03
2022-11-18T07:08:19.860Z,1000.07
2022-11-18T07:09:20.270Z,1000.03
2022-11-18T07:10:19.845Z,1000.04
2022-11-18T07:11:19.857Z,1000.10
2022-11-18T07:12:19.871Z,1000.01
2022-11-18T07:13:19.812Z,1000.05
2022-11-18T07:14:19.796Z,1000.04
2022-11-18T07:15:19.784Z,1000.08
2022-11-18T07:16:19.796Z,1000.04
2022-11-18T07:17:19.770Z,1000.09
2022-11-18T07:18:19.790Z,1000.10
2022-11-18T07:19:19.971Z,1000.13
2022-11-18T07:20:19.740Z,1000.07
2022-11-18T07:21:19.728Z,1000.16
2022-11-18T07:22:19.715Z,1000.18
2022-11-18T07:23:19.705Z,1000.18
2022-11-18T07:24:19.768Z,1000.24
2022-11-18T07:25:19.731Z,1000.24
2022-11-18T07:26:19.678Z,1000.24
2022-11-18T07:27:21.071Z,1000.25
2022-11-18T07:28:19.643Z,1000.22
2022-11-18T07:29:19.909Z,1000.25
2022-11-18T07:30:19.670Z,1000.19
2022-11-18T07:31:19.646Z,1000.26
2022-11-18T07:32:19.723Z,1000.26
2022-11-18T07:33:19.596Z,1000.28
2022-11-18T07:34:19.580Z,1000.34
2022-11-18T07:35:19.606Z,1000.30
2022-11-18T07:36:19.578Z,1000.31
2022-11-18T07:37:19.547Z,1000.33
2022-11-18T07:38:19.536Z,1000.38
2022-11-18T07:39:20.000Z,1000.39
2022-11-18T07:40:19.517Z,1000.28
2022-11-18T07:41:19.531Z,1000.32
2022-11-18T07:42:28.854Z,1000.40
2022-11-18T07:43:19.496Z,1000.33
2022-11-18T07:44:19.486Z,1000.32
2022-11-18T07:45:19.466Z,1000.34
2022-11-18T07:46:19.464Z,1000.37
2022-11-18T07:47:19.456Z,1000.35
2022-11-18T07:48:19.440Z,1000.39
2022-11-18T07:49:19.907Z,1000.35
2022-11-18T07:50:19.419Z,1000.32
2022-11-18T07:51:19.428Z,1000.41
2022-11-18T07:52:19.410Z,1000.36
2022-11-18T07:53:19.383Z,1000.35
2022-11-18T07:54:19.374Z,1000.42
2022-11-18T07:55:19.366Z,1000.44
2022-11-18T07:56:19.353Z,1000.42
2022-11-18T07:57:19.356Z,1000.51
2022-11-18T07:58:19.334Z,1000.51
2022-11-18T07:59:19.531Z,1000.47
2022-11-18T08:00:19.314Z,1000.47
2022-11-18T08:01:19.378Z,1000.55
2022-11-18T08:02:19.281Z,1000.43
2022-11-18T08:03:19.303Z,1000.50
2022-11-18T08:04:19.264Z,1000.49
2022-11-18T08:05:19.299Z,1000.50
2022-11-18T08:06:19.244Z,1000.51
2022-11-18T08:07:19.360Z,1000.55
2022-11-18T08:08:19.258Z,1000.54
2022-11-18T08:09:19.467Z,1000.52
2022-11-18T08:10:19.209Z,1000.54
2022-11-18T08:11:22.541Z,1000.53
2022-11-18T08:12:19.190Z,1000.58
2022-11-18T08:13:19.171Z,1000.59
2022-11-18T08:14:19.157Z,1000.58
2022-11-18T08:15:19.146Z,1000.68
2022-11-18T08:16:19.144Z,1000.55
2022-11-18T08:17:19.144Z,1000.64
2022-11-18T08:18:19.135Z,1000.60
2022-11-18T08:19:19.409Z,1000.63
2022-11-18T08:20:19.097Z,1000.62
2022-11-18T08:21:19.088Z,1000.68
2022-11-18T08:22:19.073Z,1000.59
2022-11-18T08:23:19.133Z,1000.67
2022-11-18T08:24:19.058Z,1000.63
2022-11-18T08:25:19.053Z,1000.63
2022-11-18T08:26:19.028Z,1000.77
2022-11-18T08:27:19.022Z,1000.71
2022-11-18T08:28:19.057Z,1000.73
2022-11-18T08:29:24.707Z,1000.73
2022-11-18T08:30:20.016Z,1000.73
2022-11-18T08:31:18.980Z,1000.68
2022-11-18T08:32:18.963Z,1000.72
2022-11-18T08:33:18.961Z,1000.61
2022-11-18T08:34:18.940Z,1000.75
2022-11-18T08:35:18.930Z,1000.71
2022-11-18T08:36:18.941Z,1000.68
2022-11-18T08:37:18.923Z,1000.75
2022-11-18T08:38:18.909Z,1000.78
2022-11-18T08:39:19.226Z,1000.80
2022-11-18T08:40:18.873Z,1000.84
2022-11-18T08:41:18.877Z,1000.82
2022-11-18T08:42:18.863Z,1000.87
2022-11-18T08:43:18.856Z,1000.80
2022-11-18T08:44:18.847Z,1000.90
2022-11-18T08:45:18.826Z,1000.97
2022-11-18T08:46:18.820Z,1000.94
2022-11-18T08:47:18.820Z,1000.94
2022-11-18T08:48:18.799Z,1000.91
2022-11-18T08:49:18.984Z,1000.89
2022-11-18T08:50:18.788Z,1000.96
2022-11-18T08:51:18.763Z,1001.00
2022-11-18T08:52:18.745Z,1000.97
2022-11-18T08:53:18.747Z,1001.05
2022-11-18T08:54:18.735Z,1001.03
2022-11-18T08:55:18.767Z,1001.09
2022-11-18T08:56:18.712Z,1001.13
2022-11-18T08:57:18.695Z,1001.15
2022-11-18T08:58:18.686Z,1001.14
2022-11-18T08:59:19.040Z,1001.03
2022-11-18T09:00:18.654Z,1001.13
2022-11-18T09:01:18.764Z,1001.12
2022-11-18T09:02:18.643Z,1001.13
2022-11-18T09:03:18.630Z,1001.16
2022-11-18T09:04:18.661Z,1001.17
2022-11-18T09:05:18.614Z,1001.12
2022-11-18T09:06:18.708Z,1001.21
2022-11-18T09:07:18.641Z,1001.27
2022-11-18T09:08:18.587Z,1001.21
2022-11-18T09:09:18.639Z,1001.22
2022-11-18T09:10:18.556Z,1001.42
2022-11-18T09:11:18.566Z,1001.26
2022-11-18T09:12:18.537Z,1001.29
2022-11-18T09:13:47.507Z,1001.34
2022-11-18T09:15:19.656Z,1001.37
2022-11-18T09:16:21.216Z,1001.36
2022-11-18T09:17:18.538Z,1001.42
2022-11-18T09:18:18.555Z,1001.44
2022-11-18T09:19:45.512Z,1001.42
2022-11-18T09:20:19.474Z,1001.44
2022-11-18T09:21:18.452Z,1001.45
2022-11-18T09:22:18.446Z,1001.53
2022-11-18T09:23:18.423Z,1001.54
2022-11-18T09:24:18.623Z,1001.54
2022-11-18T09:25:18.416Z,1001.55
2022-11-18T09:26:18.404Z,1001.60
2022-11-18T09:27:18.434Z,1001.62
2022-11-18T09:28:18.368Z,1001.64
2022-11-18T09:29:18.359Z,1001.63
2022-11-18T09:30:18.347Z,1001.63
2022-11-18T09:31:18.371Z,1001.67
2022-11-18T09:32:18.326Z,1001.62
2022-11-18T09:33:20.603Z,1001.56
2022-11-18T09:34:18.545Z,1001.69
2022-11-18T09:35:18.292Z,1001.72
2022-11-18T09:36:18.305Z,1001.65
2022-11-18T09:37:18.282Z,1001.63
2022-11-18T09:38:18.264Z,1001.72
2022-11-18T09:39:18.809Z,1001.70
2022-11-18T09:40:18.291Z,1001.73
2022-11-18T09:41:18.228Z,1001.77
2022-11-18T09:42:18.217Z,1001.73
2022-11-18T09:43:18.297Z,1001.67
2022-11-18T09:44:18.248Z,1001.74
2022-11-18T09:45:23.611Z,1001.72
2022-11-18T09:46:19.189Z,1001.72
2022-11-18T09:47:18.188Z,1001.71
2022-11-18T09:48:18.150Z,1001.67
2022-11-18T09:49:18.320Z,1001.71
2022-11-18T09:50:48.008Z,1001.68
2022-11-18T09:51:19.122Z,1001.72
2022-11-18T09:52:18.100Z,1001.73
2022-11-18T09:53:18.103Z,1001.75
2022-11-18T09:54:18.217Z,1001.76
2022-11-18T09:55:18.073Z,1001.81
2022-11-18T09:56:18.206Z,1001.84
2022-11-18T09:57:18.042Z,1001.84
2022-11-18T09:58:18.034Z,1001.88
2022-11-18T09:59:18.036Z,1001.84
2022-11-18T10:00:18.016Z,1001.89
2022-11-18T10:01:18.161Z,1001.93
2022-11-18T10:02:18.055Z,1001.93
2022-11-18T10:03:17.980Z,1001.90
2022-11-18T10:04:19.160Z,1001.93
2022-11-18T10:05:17.975Z,1001.94
2022-11-18T10:06:23.131Z,1001.99
2022-11-18T10:07:19.032Z,1001.94
2022-11-18T10:08:17.937Z,1001.98
2022-11-18T10:09:17.918Z,1002.01
2022-11-18T10:10:17.912Z,1001.99
2022-11-18T10:11:17.906Z,1002.05
2022-11-18T10:12:17.917Z,1002.02
2022-11-18T10:13:17.888Z,1002.04
2022-11-18T10:14:18.166Z,1001.97
2022-11-18T10:15:18.541Z,1001.92
2022-11-18T10:16:17.856Z,1001.97
2022-11-18T10:17:17.862Z,1001.96
2022-11-18T10:18:37.985Z,1002.02
2022-11-18T10:19:18.846Z,1002.00
2022-11-18T10:20:17.804Z,1002.09
2022-11-18T10:21:17.787Z,1002.15
2022-11-18T10:22:23.766Z,1002.10
2022-11-18T10:23:18.785Z,1002.11
2022-11-18T10:24:18.101Z,1002.04
2022-11-18T10:25:17.771Z,1002.04
2022-11-18T10:26:17.751Z,1002.09
2022-11-18T10:27:17.745Z,1002.02
2022-11-18T10:28:17.730Z,1002.04
2022-11-18T10:29:17.704Z,1002.05
2022-11-18T10:30:17.700Z,1002.06
2022-11-18T10:31:17.719Z,1002.04
2022-11-18T10:32:17.681Z,1002.06
2022-11-18T10:33:17.663Z,1002.13
2022-11-18T10:34:17.812Z,1002.09
2022-11-18T10:35:17.646Z,1002.17
2022-11-18T10:36:17.644Z,1002.14
2022-11-18T10:37:17.648Z,1002.14
2022-11-18T10:38:17.604Z,1002.12
2022-11-18T10:39:17.611Z,1002.15
2022-11-18T10:40:17.652Z,1002.12
2022-11-18T10:41:17.580Z,1002.15
2022-11-18T10:42:17.589Z,1002.16
2022-11-18T10:43:17.584Z,1002.11
2022-11-18T10:44:17.813Z,1002.21
2022-11-18T10:45:17.545Z,1002.17
2022-11-18T10:46:18.436Z,1002.25
2022-11-18T10:47:17.527Z,1002.26
2022-11-18T10:48:17.515Z,1002.21
2022-11-18T10:49:17.500Z,1002.25
2022-11-18T10:50:17.475Z,1002.18
2022-11-18T10:51:17.640Z,1002.24
2022-11-18T10:52:17.452Z,1002.22
2022-11-18T10:53:17.490Z,1002.28
2022-11-18T10:54:17.781Z,1002.29
2022-11-18T10:55:17.426Z,1002.29
2022-11-18T10:56:17.471Z,1002.28
2022-11-18T10:57:17.414Z,1002.22
2022-11-18T10:58:17.449Z,1002.28
2022-11-18T10:59:17.397Z,1002.28
2022-11-18T11:00:17.410Z,1002.26
2022-11-18T11:01:17.450Z,1002.31
2022-11-18T11:02:17.423Z,1002.24
2022-11-18T11:03:17.356Z,1002.38
2022-11-18T11:04:17.520Z,1002.33
2022-11-18T11:05:17.314Z,1002.39
2022-11-18T11:06:17.309Z,1002.35
2022-11-18T11:07:17.387Z,1002.31
2022-11-18T11:08:35.787Z,1002.36
2022-11-18T11:09:18.268Z,1002.39
2022-11-18T11:10:17.277Z,1002.42
2022-11-18T11:11:17.264Z,1002.38
2022-11-18T11:12:17.231Z,1002.40
2022-11-18T11:13:17.225Z,1002.39
2022-11-18T11:14:17.585Z,1002.41
2022-11-18T11:15:17.199Z,1002.39
2022-11-18T11:16:19.991Z,1002.40
2022-11-18T11:17:17.263Z,1002.44
2022-11-18T11:18:17.177Z,1002.38
2022-11-18T11:19:17.183Z,1002.38
2022-11-18T11:20:17.297Z,1002.38
2022-11-18T11:21:17.140Z,1002.38
2022-11-18T11:22:17.118Z,1002.37
2022-11-18T11:23:23.229Z,1002.41
2022-11-18T11:24:17.356Z,1002.38
2022-11-18T11:25:17.152Z,1002.36
2022-11-18T11:28:18.071Z,1002.44
2022-11-18T11:29:17.249Z,1002.37
2022-11-18T11:30:17.137Z,1002.35
2022-11-18T11:31:17.028Z,1002.41
2022-11-18T11:32:17.014Z,1002.42
2022-11-18T11:33:17.017Z,1002.43
2022-11-18T11:34:16.992Z,1002.40
2022-11-18T11:35:17.008Z,1002.44
2022-11-18T11:36:16.982Z,1002.38
2022-11-18T11:37:16.979Z,1002.40
2022-11-18T11:38:16.967Z,1002.44
2022-11-18T11:39:17.478Z,1002.46
2022-11-18T11:40:16.932Z,1002.42
2022-11-18T11:41:16.929Z,1002.46
2022-11-18T11:42:16.916Z,1002.42
2022-11-18T11:43:16.918Z,1002.47
2022-11-18T11:44:16.900Z,1002.48
2022-11-18T11:45:16.871Z,1002.48
2022-11-18T11:46:16.884Z,1002.43
2022-11-18T11:47:16.885Z,1002.43
2022-11-18T11:48:16.864Z,1002.48
2022-11-18T11:49:17.185Z,1002.43
2022-11-18T11:50:16.827Z,1002.48
2022-11-18T11:51:16.836Z,1002.48
2022-11-18T11:52:16.810Z,1002.40
2022-11-18T11:53:16.809Z,1002.42
2022-11-18T11:54:16.781Z,1002.43
2022-11-18T11:55:16.767Z,1002.41
2022-11-18T11:56:22.206Z,1002.45
2022-11-18T11:57:16.772Z,1002.37
2022-11-18T11:58:16.745Z,1002.45
2022-11-18T11:59:17.152Z,1002.43
2022-11-18T12:00:16.763Z,1002.41
2022-11-18T12:01:16.699Z,1002.46
2022-11-18T12:02:16.696Z,1002.42
2022-11-18T12:03:16.722Z,1002.52
2022-11-18T12:04:16.698Z,1002.49
2022-11-18T12:05:16.663Z,1002.49
2022-11-18T12:06:16.645Z,1002.44
2022-11-18T12:07:16.767Z,1002.56
2022-11-18T12:08:16.636Z,1002.58
2022-11-18T12:09:16.952Z,1002.63
2022-11-18T12:10:16.624Z,1002.56
2022-11-18T12:11:16.597Z,1002.54
2022-11-18T12:12:16.588Z,1002.53
2022-11-18T12:13:16.597Z,1002.57
2022-11-18T12:14:16.566Z,1002.64
2022-11-18T12:15:16.571Z,1002.64
2022-11-18T12:16:16.548Z,1002.64
2022-11-18T12:17:16.528Z,1002.70
2022-11-18T12:18:16.543Z,1002.67
2022-11-18T12:19:17.131Z,1002.71
2022-11-18T12:20:16.531Z,1002.76
2022-11-18T12:21:16.488Z,1002.74